• Join FlightAware (Why Join?)
  • Login
  • US Flag 
11:53AM EST


 

Airport Tracker/Info


-or-


 

Live Flight TrackerFlight Track Log ✈ N779NC ✈ 07-Jul-2013 ✈ KATL - KLIT

Flight Track Log - Related Links

Times and Time Zones

All times are in EDT time to prevent confusion due to time zone crossing. See the N779NC flight status page for this flight to view local times or setup timezone preferences in your user account.

Time Position Orientation Groundspeed Altitude Reporting Facility
EDT Latitude Longitude Course Direction KTS MPH feet Rate Location/Type
08:23PM 33.6500 -84.4667 268° West 175 201 2,200  Level Atlanta TRACON
08:24PM 33.6667 -84.5333 287° West 256 295 3,800 1,800 Climbing Atlanta TRACON
08:25PM 33.7000 -84.6167 296° West 269 310 5,900 2,100 Climbing Atlanta TRACON
08:26PM 33.6931 -84.9512 280° West  Level FlightAware Approximate
08:26PM 33.7167 -84.7000 284° West 276 318 8,100  Level Atlanta TRACON
08:27PM 33.7121 -85.0841 280° West  Level FlightAware Approximate
08:28PM 33.7166 -85.2186 268° West  Level FlightAware Approximate
08:28PM 33.7117 -84.9428 269° West 306 352 11,200  Level Atlanta Center
08:29PM 33.7086 -85.0625 268° West 347 399 13,600 2,040 Climbing Atlanta Center
08:30PM 33.7014 -85.1800 266° West 353 406 15,300 1,620 Climbing Atlanta Center
08:31PM 33.7022 -85.3072 270° West 366 421 16,900 1,380 Climbing Atlanta Center
08:32PM 33.6967 -85.4294 267° West 382 440 18,100 1,260 Climbing Atlanta Center
08:33PM 33.6950 -85.5669 269° West 388 447 19,500 1,260 Climbing Atlanta Center
08:34PM 33.6953 -85.6992 270° West 400 460 20,700 1,200 Climbing Atlanta Center
08:35PM 33.6872 -85.8339 266° West 414 476 22,000 1,200 Climbing Atlanta Center
08:36PM 33.6789 -85.9733 266° West 414 476 23,200 1,200 Climbing Atlanta Center
08:37PM 33.6683 -86.1131 265° West 421 484 24,500 1,080 Climbing Atlanta Center
08:38PM 33.6658 -86.2603 269° West 428 493 25,400 900 Climbing Atlanta Center
08:39PM 33.6694 -86.4025 272° West 428 493 26,300 900 Climbing Atlanta Center
08:40PM 33.6728 -86.5500 272° West 439 505 27,300 1,080 Climbing Atlanta Center
08:41PM 33.6758 -86.6972 271° West 439 505 28,500 1,320 Climbing Atlanta Center
08:42PM 33.6725 -86.8419 268° West 439 505 30,000 720 Climbing Atlanta Center
08:43PM 33.6819 -86.9844 275° West 439 505 30,000  Level Atlanta Center
08:46PM 33.7519 -87.3342 284° West 449 517 30,000  Level Memphis Center
08:47PM 33.7822 -87.4756 284° West 444 511 30,000  Level Memphis Center
08:48PM 33.8214 -87.6294 287° West 444 511 30,000  Level Memphis Center
08:49PM 33.8475 -87.7761 282° West 444 511 30,000  Level Memphis Center
08:50PM 33.8692 -87.9206 280° West 443 510 30,000  Level Memphis Center
08:51PM 33.8989 -88.0622 284° West 443 510 30,000  Level Memphis Center
08:52PM 33.9283 -88.1967 285° West 460 529 30,000  Level Memphis Center
08:53PM 33.9600 -88.3361 285° West 460 529 30,000  Level Memphis Center
08:54PM 33.9917 -88.4833 285° West 449 517 30,000  Level Memphis Center
08:55PM 34.0208 -88.6306 283° West 449 517 30,000  Level Memphis Center
08:56PM 34.0458 -88.7778 282° West 449 517 30,000  Level Memphis Center
08:57PM 34.0725 -88.9203 283° West 444 511 30,000  Level Memphis Center
08:58PM 34.0992 -89.0628 283° West 444 511 30,000  Level Memphis Center
08:59PM 34.1214 -89.2106 280° West 451 519 30,000  Level Memphis Center
09:00PM 34.1436 -89.3583 280° West 451 519 30,000  Level Memphis Center
09:01PM 34.1678 -89.5061 281° West 451 519 30,000  Level Memphis Center
09:02PM 34.1875 -89.6692 278° West 451 519 30,000  Level Memphis Center
09:03PM 34.2111 -89.8172 281° West 451 519 30,000  Level Memphis Center
09:04PM 34.2431 -89.9653 285° West 451 519 30,000  Level Memphis Center
09:05PM 34.2767 -90.1108 286° West 446 513 30,000  Level Memphis Center
09:06PM 34.3042 -90.2567 283° West 451 519 30,000  Level Memphis Center
09:07PM 34.3314 -90.4025 283° West 451 519 30,000  Level Memphis Center
09:08PM 34.3667 -90.5283 289° West 445 512 30,000  Level Memphis Center
09:09PM 34.3978 -90.6717 285° West 440 506 30,000 -420 Level Memphis Center
09:10PM 34.4222 -90.8206 281° West 440 506 29,200 -1,800 Descending Memphis Center
09:11PM 34.4508 -90.9617 284° West 440 506 26,500 -3,180 Descending Memphis Center
09:12PM 34.4814 -91.1056 284° West 440 506 22,900 -3,600 Descending Memphis Center
09:13PM 34.5200 -91.2569 287° West 435 501 19,300 -3,660 Descending Memphis Center
09:14PM 34.5483 -91.3961 284° West 430 495 15,600 -3,420 Descending Memphis Center
09:15PM 34.5931 -91.5253 293° West 422 486 12,500 -2,700 Descending Memphis Center
09:16PM 34.6336 -91.6444 292° West 404 465 10,300 -1,620 Descending Memphis Center
09:16PM 34.6578 -91.7106 294° West 336 387 10,000 -1,140 Descending Memphis Center
09:17PM 34.6903 -91.7917 296° West 293 337 8,600 -1,440 Descending Memphis Center
09:18PM 34.7067 -91.8275 299° West 321 369 8,000 -1,920 Descending Memphis Center
09:18PM 34.7247 -91.8858 291° West 293 337 6,700 -2,280 Descending Memphis Center
09:19PM 34.7550 -91.9672 294° West 277 319 4,600 -2,100 Descending Memphis Center
09:20PM 34.7811 -92.0411 293° West 261 300 2,700 -1,560 Descending Memphis Center
09:21PM 34.7889 -92.0817 283° West 269 310 2,300 -720 Descending Memphis Center